Felix-Klein-Gymnasium, Gttingen, 150m NN
Datos meteo: actual Freitag, 18.01.2019 22:45
Fecha Hora Temp. E. Hum. E. Baro. Lluvia Viento Direccin Direccin Sol Punto de roc ndice de en Rfaga de vi
18.01.2019 22:45 -2,9 C 86 % 1019,3 hPa 0,0 mm 0,0 km/h (0 Bft) E-NE 63 0 min -4,9 C -2,9 C 0,0 km/h (0 Bft)
18.01.2019 22:30 -2,6 C 85 % 1019,3 hPa 0,0 mm 0,0 km/h (0 Bft) E-NE 63 0 min -4,8 C -2,6 C 0,0 km/h (0 Bft)
18.01.2019 22:15 -2,5 C 85 % 1019,2 hPa 0,0 mm 0,0 km/h (0 Bft) E-NE 63 0 min -4,7 C -2,5 C 0,0 km/h (0 Bft)
18.01.2019 22:00 -2,4 C 85 % 1019,1 hPa 0,0 mm 0,0 km/h (0 Bft) E-NE 63 0 min -4,6 C -2,4 C 0,0 km/h (0 Bft)
18.01.2019 21:45 -2,3 C 85 % 1019,0 hPa 0,0 mm 0,0 km/h (0 Bft) E-NE 63 0 min -4,5 C -2,3 C 1,6 km/h (1 Bft)
18.01.2019 21:30 -2,2 C 85 % 1019,0 hPa 0,0 mm 0,7 km/h (0 Bft) E-NE 60 0 min -4,4 C -2,2 C 4,8 km/h (1 Bft)
18.01.2019 21:15 -2,1 C 85 % 1019,1 hPa 0,0 mm 1,5 km/h (1 Bft) E-NE 61 0 min -4,3 C -2,1 C 6,4 km/h (2 Bft)
18.01.2019 21:00 -1,9 C 85 % 1019,0 hPa 0,0 mm 0,7 km/h (0 Bft) E-NE 69 0 min -4,1 C -1,9 C 4,8 km/h (1 Bft)
18.01.2019 20:45 -1,7 C 84 % 1019,0 hPa 0,0 mm 1,6 km/h (1 Bft) E-NE 62 0 min -4,0 C -1,7 C 6,4 km/h (2 Bft)
18.01.2019 20:30 -1,6 C 84 % 1019,1 hPa 0,0 mm 0,5 km/h (0 Bft) E-NE 70 0 min -3,9 C -1,6 C 4,8 km/h (1 Bft)
18.01.2019 20:15 -1,3 C 82 % 1019,0 hPa 0,0 mm 0,2 km/h (0 Bft) E-NE 72 0 min -4,0 C -1,3 C 3,2 km/h (1 Bft)
18.01.2019 20:00 0,1 C 78 % 1019,0 hPa 0,0 mm 0,0 km/h (0 Bft) S-SE 155 0 min -3,3 C 0,1 C 0,0 km/h (0 Bft)
18.01.2019 19:45 0,1 C 78 % 1019,0 hPa 0,0 mm 0,0 km/h (0 Bft) S-SE 155 0 min -3,3 C 0,1 C 0,0 km/h (0 Bft)
18.01.2019 19:30 0,1 C 78 % 1019,0 hPa 0,0 mm 0,0 km/h (0 Bft) S-SE 155 0 min -3,3 C 0,1 C 0,0 km/h (0 Bft)
18.01.2019 19:15 0,1 C 78 % 1019,0 hPa 0,0 mm 0,0 km/h (0 Bft) S-SE 155 0 min -3,3 C 0,1 C 0,0 km/h (0 Bft)
18.01.2019 19:00 0,1 C 78 % 1018,9 hPa 0,0 mm 0,0 km/h (0 Bft) S-SE 155 0 min -3,3 C 0,1 C 0,0 km/h (0 Bft)
18.01.2019 18:45 0,1 C 78 % 1018,8 hPa 0,0 mm 0,0 km/h (0 Bft) S-SE 155 0 min -3,3 C 0,1 C 0,0 km/h (0 Bft)
18.01.2019 18:30 0,1 C 78 % 1018,7 hPa 0,0 mm 0,0 km/h (0 Bft) S-SE 155 0 min -3,3 C 0,1 C 0,0 km/h (0 Bft)
18.01.2019 18:00 0,3 C 78 % 1018,6 hPa 0,0 mm 0,0 km/h (0 Bft) S-SE 163 0 min -3,1 C 0,3 C 0,0 km/h (0 Bft)
18.01.2019 17:45 0,7 C 77 % 1018,7 hPa 0,0 mm 0,0 km/h (0 Bft) S-SE 165 0 min -2,9 C 0,7 C 0,0 km/h (0 Bft)
18.01.2019 17:30 1,0 C 75 % 1018,6 hPa 0,0 mm 0,0 km/h (0 Bft) S-SE 165 0 min -2,9 C 1,0 C 0,0 km/h (0 Bft)
18.01.2019 17:15 1,3 C 74 % 1018,5 hPa 0,0 mm 0,0 km/h (0 Bft) S-SE 165 0 min -2,8 C 1,3 C 0,0 km/h (0 Bft)
18.01.2019 17:00 1,5 C 73 % 1018,5 hPa 0,0 mm 0,0 km/h (0 Bft) S-SE 165 0 min -2,8 C 1,5 C 0,0 km/h (0 Bft)
18.01.2019 16:45 1,8 C 73 % 1018,5 hPa 0,0 mm 0,0 km/h (0 Bft) S-SE 165 0 min -2,5 C 1,8 C 0,0 km/h (0 Bft)
18.01.2019 16:30 2,3 C 71 % 1018,4 hPa 0,0 mm 0,0 km/h (0 Bft) S-SE 165 0 min -2,4 C 2,3 C 3,2 km/h (1 Bft)
18.01.2019 16:15 2,4 C 72 % 1018,4 hPa 0,0 mm 0,0 km/h (0 Bft) S 170 0 min -2,1 C 2,4 C 0,0 km/h (0 Bft)
18.01.2019 16:00 2,4 C 71 % 1018,4 hPa 0,0 mm 0,8 km/h (0 Bft) S 170 0 min -2,3 C 2,4 C 8,0 km/h (2 Bft)
18.01.2019 15:45 2,5 C 70 % 1018,3 hPa 0,0 mm 1,9 km/h (1 Bft) S-SE 155 0 min -2,4 C 2,5 C 11,3 km/h (2 Bft)
18.01.2019 15:30 2,7 C 69 % 1018,3 hPa 0,0 mm 2,4 km/h (1 Bft) S-SE 155 0 min -2,4 C 2,7 C 12,9 km/h (3 Bft)
18.01.2019 15:15 2,8 C 69 % 1018,4 hPa 0,0 mm 2,5 km/h (1 Bft) SE 145 0 min -2,3 C 2,8 C 9,7 km/h (2 Bft)
18.01.2019 15:00 3,1 C 69 % 1018,3 hPa 0,0 mm 0,4 km/h (0 Bft) S 180 15 min -2,0 C 3,1 C 4,8 km/h (1 Bft)
18.01.2019 14:45 2,9 C 70 % 1018,1 hPa 0,0 mm 0,7 km/h (0 Bft) S-SE 151 15 min -2,0 C 2,9 C 8,0 km/h (2 Bft)
18.01.2019 14:30 2,8 C 70 % 1018,1 hPa 0,0 mm 1,6 km/h (1 Bft) S-SE 157 15 min -2,1 C 2,8 C 8,0 km/h (2 Bft)
18.01.2019 14:15 2,7 C 69 % 1018,0 hPa 0,0 mm 1,9 km/h (1 Bft) SE 137 15 min -2,4 C 2,7 C 9,7 km/h (2 Bft)
18.01.2019 14:00 2,6 C 69 % 1018,1 hPa 0,0 mm 2,7 km/h (1 Bft) E-SE 112 15 min -2,5 C 2,6 C 14,5 km/h (3 Bft)
18.01.2019 13:45 2,6 C 69 % 1018,0 hPa 0,0 mm 5,6 km/h (1 Bft) E-NE 68 15 min -2,5 C 1,1 C 9,7 km/h (2 Bft)
18.01.2019 13:30 2,4 C 69 % 1017,9 hPa 0,0 mm 4,2 km/h (1 Bft) E 101 15 min -2,7 C 2,4 C 12,9 km/h (3 Bft)
18.01.2019 13:15 2,6 C 67 % 1017,8 hPa 0,0 mm 1,6 km/h (1 Bft) S-SW 195 15 min -2,9 C 2,6 C 8,0 km/h (2 Bft)
18.01.2019 13:00 0,5 C 80 % 1017,7 hPa 0,0 mm 1,6 km/h (1 Bft) S-SE 157 15 min -2,5 C 0,5 C 1,6 km/h (1 Bft)
18.01.2019 12:45 0,5 C 80 % 1017,8 hPa 0,0 mm 1,6 km/h (1 Bft) S-SE 157 0 min -2,5 C 0,5 C 1,6 km/h (1 Bft)
18.01.2019 12:30 0,5 C 80 % 1017,9 hPa 0,0 mm 1,6 km/h (1 Bft) S-SE 157 0 min -2,5 C 0,5 C 1,6 km/h (1 Bft)
18.01.2019 12:15 0,5 C 80 % 1018,1 hPa 0,0 mm 1,6 km/h (1 Bft) S-SE 157 0 min -2,5 C 0,5 C 1,6 km/h (1 Bft)
18.01.2019 12:00 0,5 C 80 % 1018,1 hPa 0,0 mm 1,6 km/h (1 Bft) S-SE 157 15 min -2,5 C 0,5 C 1,6 km/h (1 Bft)
18.01.2019 11:45 0,5 C 80 % 1018,2 hPa 0,0 mm 1,6 km/h (1 Bft) S-SE 157 15 min -2,5 C 0,5 C 1,6 km/h (1 Bft)
18.01.2019 11:30 0,5 C 80 % 1018,3 hPa 0,0 mm 1,2 km/h (1 Bft) S-SE 157 15 min -2,5 C 0,5 C 4,8 km/h (1 Bft)
18.01.2019 11:15 0,4 C 81 % 1018,3 hPa 0,0 mm 4,0 km/h (1 Bft) SE 144 15 min -2,5 C 0,4 C 12,9 km/h (3 Bft)
18.01.2019 11:00 0,3 C 82 % 1018,1 hPa 0,0 mm 2,5 km/h (1 Bft) SE 130 15 min -2,4 C 0,3 C 14,5 km/h (3 Bft)
18.01.2019 10:45 0,4 C 83 % 1018,0 hPa 0,0 mm 0,6 km/h (0 Bft) S-SE 156 15 min -2,1 C 0,4 C 9,7 km/h (2 Bft)
18.01.2019 10:30 0,3 C 83 % 1017,9 hPa 0,0 mm 0,2 km/h (0 Bft) S-SE 167 15 min -2,2 C 0,3 C 4,8 km/h (1 Bft)
18.01.2019 10:15 -0,1 C 84 % 1017,6 hPa 0,0 mm 0,2 km/h (0 Bft) E-SE 103 15 min -2,5 C -0,1 C 6,4 km/h (2 Bft)
18.01.2019 10:00 -0,4 C 84 % 1017,3 hPa 0,0 mm 0,0 km/h (0 Bft) E-SE 107 15 min -2,8 C -0,4 C 3,2 km/h (1 Bft)
18.01.2019 09:45 -0,6 C 85 % 1017,0 hPa 0,0 mm 0,0 km/h (0 Bft) E-SE 107 0 min -2,8 C -0,6 C 0,0 km/h (0 Bft)
18.01.2019 09:30 -0,7 C 86 % 1016,9 hPa 0,0 mm 0,0 km/h (0 Bft) E-SE 107 0 min -2,7 C -0,7 C 0,0 km/h (0 Bft)
18.01.2019 09:15 -0,9 C 86 % 1016,7 hPa 0,0 mm 0,0 km/h (0 Bft) E-SE 107 0 min -2,9 C -0,9 C 0,0 km/h (0 Bft)
18.01.2019 09:00 -1,1 C 86 % 1016,5 hPa 0,0 mm 0,5 km/h (0 Bft) E-SE 108 0 min -3,1 C -1,1 C 8,0 km/h (2 Bft)
18.01.2019 08:45 -1,1 C 87 % 1016,2 hPa 0,0 mm 0,0 km/h (0 Bft) W-SW 239 0 min -3,0 C -1,1 C 0,0 km/h (0 Bft)
18.01.2019 08:30 -1,1 C 86 % 1016,1 hPa 0,0 mm 1,4 km/h (1 Bft) W-SW 239 15 min -3,1 C -1,1 C 9,7 km/h (2 Bft)
18.01.2019 08:15 -1,1 C 86 % 1015,7 hPa 0,0 mm 0,0 km/h (0 Bft) W-NW 285 0 min -3,1 C -1,1 C 0,0 km/h (0 Bft)
18.01.2019 08:00 -1,1 C 85 % 1015,4 hPa 0,0 mm 0,1 km/h (0 Bft) W-NW 285 0 min -3,3 C -1,1 C 3,2 km/h (1 Bft)
18.01.2019 07:45 -0,9 C 84 % 1015,3 hPa 0,0 mm 0,1 km/h (0 Bft) S-SW 195 0 min -3,3 C -0,9 C 4,8 km/h (1 Bft)
18.01.2019 07:30 -0,8 C 84 % 1015,1 hPa 0,0 mm 2,2 km/h (1 Bft) S-SW 195 0 min -3,2 C -0,8 C 8,0 km/h (2 Bft)
18.01.2019 07:15 -0,7 C 83 % 1014,8 hPa 0,0 mm 0,8 km/h (0 Bft) S-SW 195 0 min -3,2 C -0,7 C 6,4 km/h (2 Bft)
18.01.2019 07:00 -0,6 C 82 % 1014,5 hPa 0,0 mm 1,8 km/h (1 Bft) S-SW 195 0 min -3,3 C -0,6 C 8,0 km/h (2 Bft)
18.01.2019 06:45 -0,5 C 81 % 1014,3 hPa 0,0 mm 0,0 km/h (0 Bft) S-SW 200 0 min -3,3 C -0,5 C 1,6 km/h (1 Bft)
18.01.2019 06:30 -0,5 C 81 % 1014,0 hPa 0,0 mm 1,7 km/h (1 Bft) S-SW 200 0 min -3,3 C -0,5 C 9,7 km/h (2 Bft)
18.01.2019 06:15 -0,5 C 80 % 1013,7 hPa 0,0 mm 5,5 km/h (1 Bft) S-SW 195 0 min -3,5 C -2,4 C 14,5 km/h (3 Bft)
18.01.2019 06:00 -0,4 C 80 % 1013,5 hPa 0,0 mm 8,2 km/h (2 Bft) S-SW 195 0 min -3,4 C -3,3 C 11,3 km/h (2 Bft)
18.01.2019 05:45 -0,4 C 79 % 1013,3 hPa 0,0 mm 9,7 km/h (2 Bft) S-SW 209 0 min -3,6 C -3,7 C 16,1 km/h (3 Bft)
18.01.2019 05:30 -0,4 C 80 % 1013,1 hPa 0,0 mm 9,7 km/h (2 Bft) SW 230 0 min -3,4 C -3,7 C 17,7 km/h (3 Bft)
18.01.2019 05:15 -0,3 C 80 % 1013,0 hPa 0,0 mm 10,2 km/h (2 Bft) SW 221 0 min -3,3 C -3,7 C 20,9 km/h (4 Bft)
18.01.2019 05:00 -0,2 C 79 % 1012,6 hPa 0,0 mm 13,1 km/h (3 Bft) SW 220 0 min -3,4 C -4,3 C 24,1 km/h (4 Bft)
18.01.2019 04:45 0,0 C 78 % 1012,2 hPa 0,0 mm 17,3 km/h (3 Bft) W-SW 239 0 min -3,4 C -4,8 C 27,4 km/h (4 Bft)
18.01.2019 04:30 0,2 C 77 % 1012,0 hPa 0,0 mm 19,8 km/h (3 Bft) S-SW 211 0 min -3,3 C -5,0 C 35,4 km/h (5 Bft)
18.01.2019 04:15 0,2 C 78 % 1011,5 hPa 0,0 mm 15,3 km/h (3 Bft) SW 236 0 min -3,2 C -4,2 C 29,0 km/h (5 Bft)
18.01.2019 04:00 0,2 C 83 % 1011,3 hPa 0,0 mm 15,7 km/h (3 Bft) S-SW 213 0 min -2,3 C -4,3 C 25,7 km/h (4 Bft)
18.01.2019 03:45 0,2 C 84 % 1010,9 hPa 0,0 mm 14,9 km/h (3 Bft) SW 230 0 min -2,2 C -4,2 C 24,1 km/h (4 Bft)
18.01.2019 03:30 0,3 C 85 % 1010,5 hPa 0,0 mm 17,0 km/h (3 Bft) SW 236 0 min -1,9 C -4,4 C 30,6 km/h (5 Bft)
18.01.2019 03:15 0,6 C 89 % 1010,2 hPa 0,0 mm 15,2 km/h (3 Bft) SW 232 0 min -1,0 C -3,7 C 27,4 km/h (4 Bft)
18.01.2019 03:00 0,6 C 90 % 1009,8 hPa 0,0 mm 9,8 km/h (2 Bft) S 171 0 min -0,8 C -2,5 C 22,5 km/h (4 Bft)
18.01.2019 02:45 0,7 C 89 % 1009,6 hPa 0,0 mm 10,0 km/h (2 Bft) SW 219 0 min -0,9 C -2,5 C 24,1 km/h (4 Bft)
18.01.2019 02:30 0,9 C 88 % 1009,3 hPa 0,0 mm 11,0 km/h (2 Bft) S 178 0 min -0,9 C -2,5 C 22,5 km/h (4 Bft)
18.01.2019 02:15 0,9 C 88 % 1008,8 hPa 0,0 mm 12,0 km/h (2 Bft) S-SE 163 0 min -0,9 C -2,7 C 25,7 km/h (4 Bft)
18.01.2019 02:00 0,9 C 88 % 1008,6 hPa 0,0 mm 12,1 km/h (2 Bft) S-SW 195 0 min -0,9 C -2,7 C 22,5 km/h (4 Bft)
18.01.2019 01:45 0,9 C 88 % 1008,5 hPa 0,0 mm 9,8 km/h (2 Bft) S-SW 205 0 min -0,9 C -2,2 C 20,9 km/h (4 Bft)
18.01.2019 01:30 1,1 C 88 % 1008,2 hPa 0,0 mm 11,5 km/h (2 Bft) SW 219 0 min -0,7 C -2,4 C 24,1 km/h (4 Bft)
18.01.2019 01:15 1,1 C 88 % 1008,0 hPa 0,0 mm 12,5 km/h (3 Bft) S-SW 209 0 min -0,7 C -2,6 C 29,0 km/h (5 Bft)
18.01.2019 01:00 1,0 C 88 % 1007,7 hPa 0,0 mm 12,8 km/h (3 Bft) S 176 0 min -0,8 C -2,8 C 27,4 km/h (4 Bft)
18.01.2019 00:45 1,3 C 85 % 1007,5 hPa 0,0 mm 14,5 km/h (3 Bft) S-SE 165 0 min -0,9 C -2,7 C 29,0 km/h (5 Bft)
18.01.2019 00:30 1,6 C 84 % 1007,2 hPa 0,0 mm 14,8 km/h (3 Bft) S-SE 167 0 min -0,8 C -2,4 C 38,6 km/h (5 Bft)
18.01.2019 00:15 1,6 C 85 % 1007,1 hPa 0,0 mm 7,4 km/h (2 Bft) S-SE 156 0 min -0,6 C -0,7 C 16,1 km/h (3 Bft)
18.01.2019 00:00 1,5 C 85 % 1006,9 hPa 0,0 mm 6,9 km/h (2 Bft) S-SE 152 0 min -0,7 C -0,6 C 17,7 km/h (3 Bft)
_ min-Hora 22:45 13:15 00:00 - 06:45 - - - 22:45 04:30 08:15
Mnima _ -2,9 C 67 % 1006,9 hPa - 0,0 km/h (0 Bft) - - - -4,9 C -5,0 C 0,0 km/h (0 Bft)
_ Mx-Hora 15:00 03:00 22:30 00:00 04:30 - - 08:30 00:15 15:00 00:30
Mxima _ 3,1 C 90 % 1019,3 hPa 0,0 mm 19,8 km/h
S-SW (3 Bft)
- - 15 min -0,6 C 3,1 C 38,6 km/h
S-SE (5 Bft)
Media _ 0,3 C 80 % 1015,8 hPa #0,0 mm 4,1 km/h (1 Bft) S-SE - #4:45 h -2,7 C -0,8 C 9,7 km/h (2 Bft)